Terminal Aerodrome Forecast
Issued by NWS

Home | Current Version | Previous Version | Text Only | Print | Product List | Glossary On
Versions: 1 2 3 4 5 6 7 8 9 10 11 12 13 14 15 16 17 18 19 20 21 22 23 24 25 26 27 28 29 30 31 32 33 34 35 36 37 38 39 40 41 42 43 44 45 46 47
000
FTAK31 PAFA 062339
TAFATA
TAF
PATA 062339Z 0700/0724 11006KT 3SM FU BKN025 OVC040
     FM070600 17005KT 1 1/2SM FU VCSH SCT015 BKN025 BKN050
     FM071500 20006KT 2SM -SHRA FU SCT015 BKN025 OVC050=

USA.gov is the U.S. government's official web portal to all federal, state and local government web resources and services.